الصفحة الرئيسية
METAR-TAF:

METAR-TAF

مطار :

Richmond, أستراليا

دائرة عرض: 20-42-07S, خط طول: 143-06-53E, ارتفاع: 206 متر

مراقبة الطقس الحالي

تاريخ ووقت الإصدار 1ساعة و 23 دقيقة قبل الساعة 19:00UTC
ريح 10 عقدة من الجنوب الشرقي
درجة الحرارة 20°درجة مئوية
الرطوبة 49%
ضغط 1014 hPa
الرؤية 10 كم أو أكثر

METAR: YRMD 171900Z AUTO 13010KT 9999 // NCD 20/09 Q1014

زمن: 06:23 (20:23 UTC)

توقعات

تاريخ ووقت الإصدار 25ساعات و 53 دقيقة قبل الساعة 18:30UTC
التوقعات صالحة من16 الساعة 20 UTC إلى 17 الساعة 08 UTC
ريح 10 عقدة من الجنوب/الجنوب الشرقي
الرؤية 10 كم أو أكثر
الغيوم لا تقل 1500 م ولا وجود لمزنة ركامية السحاب الأسود

TAF: YRMD 161830Z 1620/1708 15010KT CAVOK

أرصاد الطقس والتوقعات من أكثر من 4000 مطار (تقارير الطقس للمطار METAR والتنبؤ بالطقس بالمطارTAF).

المحطات المتاحة هي النقط الصفراء والحمراء على الخريطة.

حرك المؤشر فوق النقطة لمعرفة اسم المحطة.

ثم انقر لمعرفة أرصاد وتوقعات الطقس.

لتغيير الخارطة: اضغط على الأزرار الخضراء مع رمز الصليب الأسود للتكبير. على الزر الأخضر مع شرطة للتصغير، أو على الأسهم الخضراء للخرائط المجاورة.


METAR-TAF: